Time;durP1;ratioP1;P1;durP2;ratioP2;P2;SDS_P1;SDS_P2;PMS_P1;PMS_P2;Temp;Humidity;BMP_temperature;BMP_pressure;BME280_temperature;BME280_humidity;BME280_pressure;Samples;Min_cycle;Max_cycle;Signal;HPM_P1;HPM_P2
2022/07/12 00:02:00;;;;;;;8.35;5.43;;;;;;;24.50;47.90;100754.06;5041874;28;20047;-42
2022/07/12 00:04:27;;;;;;;8.35;4.32;;;;;;;24.47;48.13;100759.50;5039208;28;20045;-43
2022/07/12 00:06:54;;;;;;;8.45;4.43;;;;;;;24.42;47.98;100751.81;5041727;28;20136;-42
2022/07/12 00:09:21;;;;;;;9.02;4.88;;;;;;;24.36;48.41;100752.97;5044787;28;20040;-45
2022/07/12 00:11:47;;;;;;;8.20;4.68;;;;;;;24.32;47.97;100756.69;5059051;28;20101;-43
2022/07/12 00:14:14;;;;;;;7.07;4.53;;;;;;;24.26;48.09;100757.84;5055472;28;20061;-43
2022/07/12 00:16:41;;;;;;;7.13;4.32;;;;;;;24.21;48.42;100762.50;5056956;28;20202;-42
2022/07/12 00:19:08;;;;;;;8.23;4.00;;;;;;;24.15;48.84;100759.31;5042986;28;20053;-46
2022/07/12 00:21:35;;;;;;;8.90;3.72;;;;;;;24.08;48.62;100762.22;5051073;28;20041;-42
2022/07/12 00:24:02;;;;;;;5.68;2.97;;;;;;;24.05;48.96;100759.75;5062518;28;20053;-42
2022/07/12 00:26:29;;;;;;;5.38;3.17;;;;;;;24.02;48.93;100770.47;5055768;28;20067;-45
2022/07/12 00:28:57;;;;;;;6.00;3.28;;;;;;;23.97;48.56;100764.53;5053848;28;20122;-44
2022/07/12 00:31:24;;;;;;;4.18;2.83;;;;;;;23.94;48.74;100762.06;5060382;28;20048;-42
2022/07/12 00:33:50;;;;;;;5.68;2.45;;;;;;;23.91;49.36;100762.19;5057887;28;20048;-42
2022/07/12 00:36:17;;;;;;;3.20;2.13;;;;;;;23.87;48.86;100762.31;5059609;28;20045;-43
2022/07/12 00:38:44;;;;;;;6.95;2.70;;;;;;;23.86;49.61;100770.34;5060816;28;20044;-42
2022/07/12 00:41:10;;;;;;;5.40;2.65;;;;;;;23.84;49.15;100764.28;5060314;28;20117;-42
2022/07/12 00:43:37;;;;;;;5.07;2.60;;;;;;;23.81;49.70;100762.59;5057313;28;20595;-43
2022/07/12 00:46:04;;;;;;;4.40;2.20;;;;;;;23.79;48.83;100753.91;5063655;28;20052;-42
2022/07/12 00:48:32;;;;;;;4.70;2.55;;;;;;;23.79;49.81;100753.03;5062011;28;20048;-42
2022/07/12 00:51:00;;;;;;;4.55;2.45;;;;;;;23.76;49.00;100759.34;5054805;28;20942;-41
2022/07/12 00:53:27;;;;;;;4.20;2.72;;;;;;;23.74;49.57;100761.19;5058315;28;20103;-43
2022/07/12 00:55:56;;;;;;;4.60;2.70;;;;;;;23.72;49.45;100765.69;5059284;28;20040;-42
2022/07/12 00:58:24;;;;;;;5.10;2.05;;;;;;;23.68;49.15;100757.06;5044675;28;20056;-43
2022/07/12 01:00:51;;;;;;;3.28;1.80;;;;;;;23.67;49.65;100760.63;5042947;28;20045;-42
2022/07/12 01:03:19;;;;;;;4.55;1.58;;;;;;;23.66;49.86;100743.03;5037737;28;20489;-43
2022/07/12 01:05:46;;;;;;;3.45;2.00;;;;;;;23.64;49.29;100749.34;5038824;28;20663;-42
2022/07/12 01:08:15;;;;;;;4.28;2.20;;;;;;;23.61;49.80;100745.88;5045198;28;20482;-42
2022/07/12 01:10:43;;;;;;;3.60;1.60;;;;;;;23.60;49.81;100738.03;5037221;28;20102;-42
2022/07/12 01:13:10;;;;;;;2.88;1.52;;;;;;;23.59;50.50;100737.19;5057318;28;20067;-42
2022/07/12 01:15:37;;;;;;;2.55;1.60;;;;;;;23.57;49.67;100733.75;5053583;28;20045;-42
2022/07/12 01:18:04;;;;;;;2.33;1.35;;;;;;;23.56;49.42;100734.69;5051492;28;20075;-43
2022/07/12 01:20:32;;;;;;;3.15;1.77;;;;;;;23.54;49.69;100728.59;5037193;28;20098;-42
2022/07/12 01:22:59;;;;;;;7.15;1.85;;;;;;;23.52;50.45;100733.13;5035411;28;20048;-44
2022/07/12 01:25:26;;;;;;;2.90;1.90;;;;;;;23.50;49.92;100729.66;5058345;28;20072;-43
2022/07/12 01:27:53;;;;;;;3.30;2.03;;;;;;;23.50;50.01;100729.66;5055847;28;20439;-44
2022/07/12 01:30:21;;;;;;;3.75;2.25;;;;;;;23.45;50.61;100726.41;5051936;28;20126;-44
2022/07/12 01:32:47;;;;;;;4.95;1.80;;;;;;;23.40;50.20;100728.41;5063069;28;20041;-43
2022/07/12 01:35:15;;;;;;;3.58;1.80;;;;;;;23.35;50.73;100721.53;5056212;28;20049;-47
2022/07/12 01:37:42;;;;;;;4.43;2.05;;;;;;;23.33;49.97;100719.84;5056711;28;20090;-43
2022/07/12 01:40:11;;;;;;;3.70;2.00;;;;;;;23.33;50.40;100726.00;5062909;28;20545;-42
2022/07/12 01:42:38;;;;;;;3.75;1.60;;;;;;;23.32;50.41;100739.28;5061010;28;20134;-43
2022/07/12 01:45:06;;;;;;;3.58;1.50;;;;;;;23.28;50.54;100733.28;5042651;28;20107;-45
2022/07/12 01:47:34;;;;;;;3.85;1.58;;;;;;;23.25;50.34;100738.69;5061259;28;20109;-44
2022/07/12 01:50:04;;;;;;;3.53;1.90;;;;;;;23.23;50.02;100745.81;5046326;28;20721;-44
2022/07/12 01:52:31;;;;;;;2.83;1.25;;;;;;;23.20;49.59;100746.00;5058342;28;20083;-42
2022/07/12 01:54:59;;;;;;;2.35;1.90;;;;;;;23.18;50.47;100742.53;5052590;28;20056;-42
2022/07/12 01:57:26;;;;;;;3.80;1.95;;;;;;;23.16;50.73;100744.38;5054732;28;20057;-44
2022/07/12 01:59:53;;;;;;;3.22;1.52;;;;;;;23.14;50.26;100746.25;5059546;28;20064;-43
2022/07/12 02:02:21;;;;;;;3.00;1.67;;;;;;;23.10;50.38;100741.09;5054038;28;20056;-42
2022/07/12 02:04:48;;;;;;;3.67;1.73;;;;;;;23.09;50.50;100755.25;5052531;28;20162;-43
2022/07/12 02:07:14;;;;;;;3.30;1.40;;;;;;;23.07;50.23;100757.06;5053419;28;20823;-43
2022/07/12 02:09:41;;;;;;;3.28;1.30;;;;;;;23.05;50.12;100752.78;5056294;28;20052;-43
2022/07/12 02:12:08;;;;;;;4.38;1.40;;;;;;;23.03;50.87;100750.22;5051405;28;20055;-41
2022/07/12 02:14:35;;;;;;;2.22;1.10;;;;;;;23.01;50.20;100752.09;5054729;28;20121;-43
2022/07/12 02:17:02;;;;;;;3.08;1.42;;;;;;;23.00;50.51;100746.88;5062037;28;20052;-42
2022/07/12 02:19:28;;;;;;;3.13;1.88;;;;;;;22.97;51.05;100750.50;5060052;28;20485;-42
2022/07/12 02:21:55;;;;;;;4.10;1.58;;;;;;;22.94;50.29;100748.88;5064058;28;20045;-43
2022/07/12 02:24:21;;;;;;;3.30;1.48;;;;;;;22.94;50.25;100751.50;5060704;28;20066;-44
2022/07/12 02:26:48;;;;;;;2.25;1.83;;;;;;;22.93;50.37;100754.22;5056846;28;20048;-41
2022/07/12 02:29:15;;;;;;;2.42;1.10;;;;;;;22.89;50.29;100736.78;5060922;28;20511;-42
2022/07/12 02:31:41;;;;;;;3.58;1.38;;;;;;;22.87;49.99;100744.78;5059294;28;20099;-42
2022/07/12 02:34:08;;;;;;;2.97;1.20;;;;;;;22.84;50.28;100739.63;5060942;28;20040;-42
2022/07/12 02:36:35;;;;;;;4.30;1.63;;;;;;;22.81;50.81;100739.75;5063109;28;20061;-42
2022/07/12 02:39:03;;;;;;;2.97;1.42;;;;;;;22.79;50.56;100737.16;5065805;28;20049;-42
2022/07/12 02:41:31;;;;;;;2.35;1.50;;;;;;;22.78;50.21;100738.09;5057400;28;20041;-43
2022/07/12 02:43:58;;;;;;;4.28;1.38;;;;;;;22.73;50.15;100733.00;5064073;28;20099;-44
2022/07/12 02:46:25;;;;;;;2.47;1.50;;;;;;;22.70;50.39;100742.84;5057218;28;20075;-42
2022/07/12 02:48:52;;;;;;;3.60;1.95;;;;;;;22.67;50.77;100746.50;5061266;28;20152;-43
2022/07/12 02:51:19;;;;;;;2.35;1.13;;;;;;;22.65;50.67;100750.09;5063554;28;20053;-42
2022/07/12 02:53:46;;;;;;;3.40;2.05;;;;;;;22.62;51.08;100744.97;5062987;28;20071;-43
2022/07/12 02:56:12;;;;;;;4.32;2.50;;;;;;;22.57;51.56;100740.75;5063167;28;20048;-43
2022/07/12 02:58:39;;;;;;;3.72;2.45;;;;;;;22.57;51.56;100742.50;5062238;28;20106;-43
2022/07/12 03:01:06;;;;;;;5.63;2.40;;;;;;;22.55;51.73;100745.19;5061453;28;20103;-44
2022/07/12 03:03:33;;;;;;;4.30;2.00;;;;;;;22.53;51.78;100741.72;5049255;28;20045;-43
2022/07/12 03:06:00;;;;;;;3.60;2.15;;;;;;;22.50;51.57;100752.44;5037618;28;20048;-44
2022/07/12 03:08:26;;;;;;;3.58;1.80;;;;;;;22.47;51.99;100752.56;5041798;28;21572;-44
2022/07/12 03:10:53;;;;;;;3.15;1.33;;;;;;;22.43;51.93;100745.69;5043188;28;20107;-43
2022/07/12 03:13:20;;;;;;;5.07;1.60;;;;;;;22.40;51.91;100751.09;5047503;28;20045;-42
2022/07/12 03:15:46;;;;;;;4.75;1.42;;;;;;;22.37;51.67;100756.50;5045771;28;20440;-43
2022/07/12 03:18:13;;;;;;;2.38;1.13;;;;;;;22.33;51.62;100756.63;5041260;28;20045;-44
2022/07/12 03:20:40;;;;;;;2.40;1.45;;;;;;;22.29;51.64;100755.03;5043788;28;20068;-42
2022/07/12 03:23:07;;;;;;;3.65;1.20;;;;;;;22.27;51.66;100756.03;5035059;28;20049;-43
2022/07/12 03:25:35;;;;;;;2.30;1.02;;;;;;;22.24;52.06;100751.72;5037083;28;20081;-42
2022/07/12 03:28:02;;;;;;;3.45;1.33;;;;;;;22.23;51.69;100754.44;5042091;28;20064;-43
2022/07/12 03:30:29;;;;;;;4.65;1.20;;;;;;;22.21;51.90;100758.00;5040122;28;20049;-43
2022/07/12 03:32:55;;;;;;;4.35;1.52;;;;;;;22.18;51.74;100763.38;5041912;28;20060;-44
2022/07/12 03:35:23;;;;;;;1.95;1.33;;;;;;;22.16;52.02;100769.66;5041835;28;20059;-44
2022/07/12 03:37:51;;;;;;;2.92;1.20;;;;;;;22.14;51.68;100763.56;5041283;28;20053;-44
2022/07/12 03:40:19;;;;;;;4.18;1.30;;;;;;;22.10;52.07;100765.47;5043171;28;20045;-43
2022/07/12 03:42:47;;;;;;;3.50;1.33;;;;;;;22.06;52.62;100753.34;5038172;28;20739;-45
2022/07/12 03:45:15;;;;;;;3.03;1.50;;;;;;;22.03;52.12;100759.59;5040599;28;20546;-44
2022/07/12 03:47:42;;;;;;;3.55;1.70;;;;;;;22.00;52.36;100754.44;5038411;28;20041;-43
2022/07/12 03:50:12;;;;;;;4.93;1.23;;;;;;;21.99;52.17;100754.50;5043642;28;20072;-43
2022/07/12 03:52:42;;;;;;;4.05;2.22;;;;;;;21.95;52.31;100751.09;5039024;28;20095;-43
2022/07/12 03:55:10;;;;;;;3.90;1.58;;;;;;;21.94;52.43;100752.03;5040465;28;20044;-44
2022/07/12 03:57:37;;;;;;;2.72;1.48;;;;;;;21.92;52.35;100767.06;5035963;28;20045;-44
2022/07/12 04:00:09;;;;;;;2.25;1.20;;;;;;;21.90;51.94;100753.06;5036230;28;20091;-42
2022/07/12 04:02:37;;;;;;;2.60;1.33;;;;;;;21.87;51.73;100755.81;5046231;28;20052;-43
2022/07/12 04:05:05;;;;;;;3.70;1.50;;;;;;;21.87;52.10;100748.78;5055257;28;20044;-42
2022/07/12 04:07:32;;;;;;;3.33;1.92;;;;;;;21.87;52.03;100747.91;5056788;28;20048;-42
2022/07/12 04:09:59;;;;;;;3.65;1.92;;;;;;;21.85;52.13;100744.50;5060627;28;20052;-42
2022/07/12 04:12:26;;;;;;;5.70;1.80;;;;;;;21.82;52.31;100751.59;5056584;28;20090;-43
2022/07/12 04:14:52;;;;;;;4.90;1.85;;;;;;;21.80;52.38;100748.16;5059674;28;20091;-42
2022/07/12 04:17:19;;;;;;;5.60;2.10;;;;;;;21.76;52.25;100748.34;5064277;28;20056;-45
2022/07/12 04:19:46;;;;;;;4.72;2.47;;;;;;;21.74;52.12;100753.66;5065794;28;20060;-44
2022/07/12 04:22:12;;;;;;;4.35;1.98;;;;;;;21.71;52.60;100748.47;5056706;28;20040;-46
2022/07/12 04:24:39;;;;;;;4.85;2.20;;;;;;;21.70;52.76;100749.41;5041794;28;20049;-42
2022/07/12 04:27:06;;;;;;;4.22;2.22;;;;;;;21.69;52.82;100742.41;5038695;28;20075;-42
2022/07/12 04:29:32;;;;;;;7.63;2.47;;;;;;;21.68;52.29;100740.69;5039563;28;20497;-42
2022/07/12 04:31:59;;;;;;;6.43;3.03;;;;;;;21.67;52.98;100731.06;5045403;28;20067;-42
2022/07/12 04:34:26;;;;;;;5.47;2.70;;;;;;;21.68;52.78;100740.69;5059988;28;20742;-43
2022/07/12 04:36:52;;;;;;;5.70;3.30;;;;;;;21.69;52.77;100743.25;5039021;28;20095;-43
2022/07/12 04:39:19;;;;;;;5.10;3.03;;;;;;;21.68;52.74;100743.31;5035138;28;20049;-43
2022/07/12 04:41:46;;;;;;;5.00;3.60;;;;;;;21.70;53.12;100746.75;5037592;28;20120;-42
2022/07/12 04:44:13;;;;;;;7.63;2.60;;;;;;;21.70;52.95;100746.75;5042006;28;20049;-45
2022/07/12 04:46:39;;;;;;;4.82;2.50;;;;;;;21.69;52.63;100742.41;5034982;28;20053;-44
2022/07/12 04:49:06;;;;;;;4.15;2.20;;;;;;;21.71;52.59;100743.19;5038549;28;20056;-47
2022/07/12 04:51:33;;;;;;;4.68;2.90;;;;;;;21.70;52.75;100737.09;5034256;28;20045;-47
2022/07/12 04:53:59;;;;;;;6.72;2.80;;;;;;;21.69;53.26;100740.63;5041313;28;20103;-43
2022/07/12 04:56:26;;;;;;;6.65;2.58;;;;;;;21.70;53.33;100733.59;5037190;28;20045;-42
2022/07/12 04:58:53;;;;;;;4.78;2.53;;;;;;;21.72;52.96;100729.13;5041621;28;20045;-45
2022/07/12 05:01:26;;;;;;;4.72;2.65;;;;;;;21.76;52.99;100728.13;5042496;28;20071;-43
2022/07/12 05:03:53;;;;;;;6.00;3.05;;;;;;;21.79;53.15;100725.34;5036193;28;20064;-44
2022/07/12 05:06:20;;;;;;;6.38;3.13;;;;;;;21.80;53.21;100724.44;5036674;28;20099;-43
2022/07/12 05:08:46;;;;;;;6.43;3.15;;;;;;;21.80;53.14;100716.53;5034644;28;20947;-48
2022/07/12 05:11:13;;;;;;;6.82;3.13;;;;;;;21.83;53.08;100724.31;5038082;28;20098;-47
2022/07/12 05:13:40;;;;;;;8.38;3.50;;;;;;;21.86;53.08;100717.19;5039785;28;20469;-46
2022/07/12 05:16:08;;;;;;;6.03;3.65;;;;;;;21.88;52.93;100707.47;5037757;28;20102;-42
2022/07/12 05:18:35;;;;;;;5.85;3.33;;;;;;;21.91;52.76;100702.03;5040298;28;20048;-45
2022/07/12 05:21:02;;;;;;;6.28;3.10;;;;;;;21.92;52.75;100709.06;5042513;28;20389;-44
2022/07/12 05:23:29;;;;;;;6.00;3.30;;;;;;;21.96;53.28;100710.66;5042008;28;20040;-43
2022/07/12 05:25:56;;;;;;;6.15;3.45;;;;;;;22.02;53.25;100714.81;5062509;28;20048;-43
2022/07/12 05:28:22;;;;;;;6.97;3.70;;;;;;;22.04;52.77;100713.81;5059314;28;20472;-42
2022/07/12 05:30:49;;;;;;;6.10;3.47;;;;;;;22.11;52.77;100729.38;5058247;28;20048;-43
2022/07/12 05:33:16;;;;;;;5.93;2.83;;;;;;;22.17;52.54;100734.44;5061794;28;20071;-43
2022/07/12 05:35:42;;;;;;;5.72;3.50;;;;;;;22.24;52.46;100750.84;5055534;28;20041;-44
2022/07/12 05:38:10;;;;;;;4.72;2.72;;;;;;;22.32;52.46;100754.03;5058880;28;20048;-43
2022/07/12 05:40:36;;;;;;;4.75;2.05;;;;;;;22.34;53.32;100755.72;5055187;28;20059;-43
2022/07/12 05:43:03;;;;;;;4.70;3.13;;;;;;;22.36;53.48;100760.06;5053845;28;20037;-42
2022/07/12 05:45:30;;;;;;;4.57;2.45;;;;;;;22.38;53.24;100763.47;5057219;28;20040;-43
2022/07/12 05:47:56;;;;;;;5.50;2.47;;;;;;;22.42;53.03;100773.00;5056964;28;20045;-42
2022/07/12 05:50:23;;;;;;;6.32;2.20;;;;;;;22.45;52.67;100770.22;5056572;28;20040;-43
2022/07/12 05:55:36;;;;;;;5.07;2.50;;;;;;;22.51;51.93;100769.13;5061403;28;20049;-43
2022/07/12 05:58:03;;;;;;;4.38;2.45;;;;;;;22.55;52.01;100770.72;5059365;28;20703;-42
2022/07/12 06:00:32;;;;;;;5.65;2.38;;;;;;;22.60;51.56;100774.91;5061913;28;20052;-43
2022/07/12 06:02:58;;;;;;;5.80;2.50;;;;;;;22.65;51.70;100776.50;5061032;28;20036;-43
2022/07/12 06:05:25;;;;;;;4.72;2.40;;;;;;;22.69;51.52;100773.66;5058258;28;20464;-43
2022/07/12 06:07:52;;;;;;;4.03;2.05;;;;;;;22.75;52.12;100772.53;5064238;28;20108;-43
2022/07/12 06:10:19;;;;;;;3.25;2.03;;;;;;;22.80;51.47;100770.56;5041222;28;20049;-43
2022/07/12 06:12:45;;;;;;;3.65;2.05;;;;;;;22.89;51.95;100779.03;5048556;28;20451;-43
2022/07/12 06:15:12;;;;;;;6.78;2.30;;;;;;;22.94;50.91;100766.47;5045772;28;20049;-43
2022/07/12 06:17:39;;;;;;;3.97;2.17;;;;;;;23.01;51.74;100765.28;5038637;28;20558;-43
2022/07/12 06:20:06;;;;;;;5.38;2.25;;;;;;;23.06;51.43;100765.94;5042344;28;20049;-42
2022/07/12 06:22:33;;;;;;;4.03;2.05;;;;;;;23.11;50.99;100763.09;5040778;28;20037;-46
2022/07/12 06:24:59;;;;;;;6.47;1.90;;;;;;;23.18;51.11;100763.69;5041445;28;20103;-42
2022/07/12 06:27:47;;;;;;;3.03;1.60;;;;;;;23.24;50.85;100752.84;5045151;28;20080;-42
2022/07/12 06:30:19;;;;;;;4.18;1.88;;;;;;;23.35;50.97;100760.31;5044514;28;20128;-44
2022/07/12 06:32:46;;;;;;;3.97;2.17;;;;;;;23.45;50.95;100760.75;5040167;28;20052;-42
2022/07/12 06:35:14;;;;;;;3.38;1.85;;;;;;;23.55;50.09;100761.19;5042633;28;20079;-44
2022/07/12 06:37:41;;;;;;;3.40;2.00;;;;;;;23.66;50.37;100763.31;5043090;28;20049;-42
2022/07/12 06:40:09;;;;;;;2.90;1.90;;;;;;;23.80;49.94;100760.91;5040576;28;20044;-44
2022/07/12 06:42:36;;;;;;;2.58;1.50;;;;;;;23.93;50.24;100757.66;5038020;28;20045;-43
2022/07/12 06:45:03;;;;;;;3.58;1.50;;;;;;;24.06;49.88;100760.59;5047057;28;20044;-43
2022/07/12 06:47:30;;;;;;;3.25;1.70;;;;;;;24.17;50.04;100773.31;5056362;28;20101;-42
2022/07/12 06:49:57;;;;;;;2.63;1.50;;;;;;;24.24;49.32;100774.72;5043285;28;20067;-44
2022/07/12 06:52:23;;;;;;;4.05;1.70;;;;;;;24.29;49.57;100778.03;5039413;28;20041;-43
2022/07/12 06:54:58;;;;;;;3.28;1.58;;;;;;;24.36;48.96;100774.16;5041817;28;20133;-43
2022/07/12 06:57:26;;;;;;;2.25;1.25;;;;;;;24.44;48.92;100770.25;5032760;28;20041;-43
2022/07/12 06:59:54;;;;;;;4.85;2.10;;;;;;;24.51;49.46;100782.25;5044108;28;20072;-44
2022/07/12 07:02:21;;;;;;;3.80;1.58;;;;;;;24.57;48.77;100771.34;5038524;28;20045;-43
2022/07/12 07:04:48;;;;;;;5.03;1.88;;;;;;;24.60;48.97;100765.91;5046520;28;20053;-42
2022/07/12 07:07:15;;;;;;;2.63;1.40;;;;;;;24.63;48.60;100760.44;5039115;28;20045;-46
2022/07/12 07:09:42;;;;;;;3.25;1.80;;;;;;;24.67;48.98;100770.88;5035778;28;20049;-43
2022/07/12 07:12:09;;;;;;;2.03;1.10;;;;;;;24.67;48.80;100766.44;5040941;28;20639;-43
2022/07/12 07:14:36;;;;;;;3.40;2.03;;;;;;;24.68;48.11;100768.16;5042351;28;20048;-42
2022/07/12 07:17:03;;;;;;;3.17;1.77;;;;;;;24.65;48.13;100763.00;5038197;28;20715;-43
2022/07/12 07:19:30;;;;;;;4.00;1.77;;;;;;;24.60;48.28;100776.50;5041682;28;20072;-44
2022/07/12 07:21:58;;;;;;;4.57;1.73;;;;;;;24.53;48.08;100772.44;5037856;28;20045;-43
2022/07/12 07:24:25;;;;;;;4.13;1.98;;;;;;;24.49;48.14;100770.88;5040057;28;20057;-43
2022/07/12 07:26:52;;;;;;;3.10;1.50;;;;;;;24.45;48.46;100772.81;5039306;28;20052;-43
2022/07/12 07:32:11;;;;;;;3.13;1.58;;;;;;;24.47;47.92;100770.97;5042708;28;20045;-42
2022/07/12 07:34:38;;;;;;;4.28;1.63;;;;;;;24.52;47.92;100778.69;5041918;28;20055;-43
2022/07/12 07:37:05;;;;;;;2.85;1.35;;;;;;;24.56;48.49;100782.88;5040625;28;20045;-43
2022/07/12 07:39:32;;;;;;;4.22;1.35;;;;;;;24.58;48.54;100783.66;5038802;28;20049;-42
2022/07/12 07:41:58;;;;;;;5.60;1.80;;;;;;;24.58;48.48;100778.34;5036391;28;20424;-43
2022/07/12 07:44:25;;;;;;;2.22;1.10;;;;;;;24.63;48.42;100781.63;5039146;28;20044;-42
2022/07/12 07:47:00;;;;;;;2.03;1.77;;;;;;;24.71;48.07;100783.03;5032981;28;20049;-42
2022/07/12 07:49:27;;;;;;;5.15;1.50;;;;;;;24.75;48.02;100785.44;5059148;28;20052;-43
2022/07/12 07:51:54;;;;;;;6.10;1.45;;;;;;;24.81;47.64;100778.97;5065121;28;20052;-43
2022/07/12 07:54:20;;;;;;;5.15;1.30;;;;;;;24.85;47.68;100780.56;5058026;28;20043;-42
2022/07/12 07:56:47;;;;;;;3.90;1.10;;;;;;;24.84;47.88;100778.84;5062189;28;20048;-42
2022/07/12 07:59:13;;;;;;;1.92;1.17;;;;;;;24.88;47.84;100784.84;5060365;28;20106;-43
2022/07/12 08:01:45;;;;;;;2.10;1.50;;;;;;;24.89;47.97;100779.47;5057119;28;20452;-42
2022/07/12 08:04:13;;;;;;;3.08;1.52;;;;;;;24.91;47.66;100784.69;5058366;28;20037;-45
2022/07/12 08:06:40;;;;;;;4.40;1.27;;;;;;;24.90;47.19;100789.13;5053767;28;20056;-42
2022/07/12 08:09:07;;;;;;;3.10;1.42;;;;;;;24.95;47.52;100796.00;5053776;28;20643;-42
2022/07/12 08:11:38;;;;;;;3.95;1.08;;;;;;;24.96;47.18;100803.03;5054804;28;20087;-43
2022/07/12 08:14:06;;;;;;;1.98;1.00;;;;;;;25.00;47.72;100801.91;5054052;28;20466;-46
2022/07/12 08:16:34;;;;;;;3.35;1.38;;;;;;;25.03;47.76;100804.41;5052861;28;20119;-44
2022/07/12 08:19:01;;;;;;;3.75;1.10;;;;;;;25.05;47.42;100807.81;5053008;28;20047;-45
2022/07/12 08:21:28;;;;;;;2.20;1.08;;;;;;;25.08;46.97;100812.97;5043118;28;20060;-44
2022/07/12 08:23:55;;;;;;;2.13;1.10;;;;;;;25.14;47.59;100811.78;5041876;28;20110;-45
2022/07/12 08:26:22;;;;;;;2.63;1.13;;;;;;;25.15;46.80;100814.38;5033375;28;20107;-46
2022/07/12 08:28:49;;;;;;;3.60;1.38;;;;;;;25.19;46.76;100809.75;5035293;28;20071;-45
2022/07/12 08:31:16;;;;;;;1.90;1.10;;;;;;;25.23;47.01;100808.66;5038868;28;20110;-42
2022/07/12 08:33:42;;;;;;;2.35;1.10;;;;;;;25.29;46.76;100815.44;5039975;28;20049;-46
2022/07/12 08:36:09;;;;;;;2.60;1.27;;;;;;;25.35;47.26;100817.75;5040565;28;20053;-45
2022/07/12 08:38:37;;;;;;;2.47;1.35;;;;;;;25.39;47.27;100821.97;5034266;28;20144;-46
2022/07/12 08:41:05;;;;;;;2.60;1.30;;;;;;;25.42;47.30;100810.34;5039290;28;20154;-44
2022/07/12 08:43:35;;;;;;;2.42;1.80;;;;;;;25.44;46.94;100816.44;5041692;28;20063;-42
2022/07/12 08:46:04;;;;;;;3.20;1.23;;;;;;;25.45;47.17;100810.16;5037871;28;20049;-42
2022/07/12 08:48:31;;;;;;;2.83;1.27;;;;;;;25.47;47.05;100813.63;5045076;28;20055;-44
2022/07/12 08:53:44;;;;;;;3.20;2.85;;;;;;;25.69;47.55;100811.63;5107177;27;20398;-49
2022/07/12 08:56:31;;;;;;;3.95;2.38;;;;;;;25.78;47.44;100808.47;5052274;28;20045;-44
2022/07/12 08:59:10;;;;;;;4.75;3.08;;;;;;;25.90;46.86;100815.72;5065644;28;20053;-43
2022/07/12 09:01:43;;;;;;;2.88;2.40;;;;;;;26.03;46.84;100805.28;5074205;28;20065;-45
2022/07/12 09:04:11;;;;;;;4.25;2.30;;;;;;;26.15;46.54;100806.41;5056281;28;20059;-44
2022/07/12 09:06:38;;;;;;;3.13;2.33;;;;;;;26.27;46.17;100802.22;5059656;28;20056;-43
2022/07/12 09:09:08;;;;;;;2.78;2.42;;;;;;;26.40;46.08;100813.00;5056946;28;20068;-42
2022/07/12 09:11:37;;;;;;;2.33;2.08;;;;;;;26.54;45.35;100813.97;5056743;28;20053;-42
2022/07/12 09:14:04;;;;;;;3.75;2.38;;;;;;;26.69;45.59;100812.25;5050346;28;20076;-42
2022/07/12 09:16:31;;;;;;;2.53;1.90;;;;;;;26.85;45.07;100801.53;5074499;28;20122;-44
2022/07/12 09:19:17;;;;;;;4.30;2.13;;;;;;;27.00;45.43;100806.91;5049512;28;20049;-43
2022/07/12 09:21:49;;;;;;;2.67;1.40;;;;;;;27.21;44.88;100802.09;5050044;28;22325;-43
2022/07/12 09:24:18;;;;;;;3.25;2.47;;;;;;;27.37;44.42;100815.31;5041778;28;20053;-42
2022/07/12 09:26:45;;;;;;;;;;;;;;;27.43;44.92;100814.91;5043340;28;20076;-43
2022/07/12 09:29:13;;;;;;;5.30;3.05;;;;;;;27.61;43.94;100820.06;5041540;28;19925;-45
2022/07/12 09:37:17;;;;;;;3.30;2.25;;;;;;;27.70;42.90;100811.50;5041556;28;20049;-43
2022/07/12 09:39:45;;;;;;;4.43;1.63;;;;;;;27.75;43.55;100826.31;5043514;28;20040;-48
2022/07/12 09:42:12;;;;;;;3.08;2.22;;;;;;;27.88;43.27;100815.75;5049464;28;20041;-45
2022/07/12 09:44:40;;;;;;;3.72;2.13;;;;;;;28.02;42.96;100818.41;5042316;28;20076;-43
2022/07/12 09:47:15;;;;;;;3.40;0.88;;;;;;;28.08;42.39;100817.16;5040844;28;21144;-43
2022/07/12 09:49:42;;;;;;;3.38;0.80;;;;;;;28.13;42.30;100815.03;5055380;28;20472;-47
2022/07/12 09:52:12;;;;;;;3.10;1.85;;;;;;;28.16;42.39;100819.31;5040030;28;20041;-46
2022/07/12 09:54:41;;;;;;;3.05;2.10;;;;;;;28.20;42.92;100832.31;5050868;28;20057;-43
2022/07/12 09:57:19;;;;;;;4.60;2.42;;;;;;;28.20;43.08;100832.31;5043737;28;20041;-43
2022/07/12 09:59:47;;;;;;;2.83;2.53;;;;;;;28.21;43.15;100839.38;5041842;28;20045;-43
2022/07/12 10:02:15;;;;;;;5.00;3.03;;;;;;;28.20;42.32;100837.63;5043303;28;20041;-43
2022/07/12 10:04:44;;;;;;;2.45;2.13;;;;;;;28.11;42.89;100835.59;5030455;28;20092;-44
2022/07/12 10:07:13;;;;;;;3.60;1.92;;;;;;;28.05;42.22;100830.66;5028247;28;20052;-44
2022/07/12 10:09:41;;;;;;;5.55;2.78;;;;;;;28.04;42.71;100820.97;5025867;28;20045;-44
2022/07/12 10:12:11;;;;;;;3.45;2.10;;;;;;;28.06;42.01;100811.09;5027326;28;20048;-45
2022/07/12 10:14:38;;;;;;;2.95;1.92;;;;;;;28.07;42.25;100818.94;5026633;28;20049;-47
2022/07/12 10:17:09;;;;;;;3.55;2.15;;;;;;;28.11;42.69;100808.97;5028291;28;20046;-43
2022/07/12 10:19:36;;;;;;;3.58;2.33;;;;;;;28.19;42.59;100801.31;5027120;28;20136;-44
2022/07/12 10:22:06;;;;;;;4.53;2.13;;;;;;;28.26;42.30;100800.94;5028434;28;20037;-44
2022/07/12 10:29:52;;;;;;;2.03;1.40;;;;;;;28.60;43.02;100790.69;5045152;27;20410;-43
2022/07/12 10:32:34;;;;;;;2.60;1.77;;;;;;;28.40;42.68;100795.56;5024417;28;20065;-46
2022/07/12 10:35:05;;;;;;;2.92;2.15;;;;;;;28.45;43.38;100804.13;5022031;28;20056;-44
2022/07/12 10:37:35;;;;;;;4.50;1.90;;;;;;;28.51;43.54;100816.16;5021697;28;20131;-43
2022/07/12 10:40:19;;;;;;;4.40;1.98;;;;;;;28.47;42.62;100812.00;5021832;28;20057;-43
2022/07/12 10:45:40;;;;;;;1.80;0.77;;;;;;;28.54;42.50;100817.78;5020189;27;21098;-43
2022/07/12 10:58:57;;;;;;;2.40;1.83;;;;;;;29.27;42.91;100831.50;5001002;28;20395;-44
2022/07/12 11:04:06;;;;;;;9.10;1.58;;;;;;;29.29;41.85;100834.94;5028340;27;22258;-44
2022/07/12 11:06:37;;;;;;;1.92;0.63;;;;;;;29.32;42.16;100834.75;5022835;28;20042;-46
2022/07/12 11:09:07;;;;;;;2.47;0.50;;;;;;;29.38;42.36;100838.78;5018965;28;20050;-44
2022/07/12 11:11:43;;;;;;;3.10;1.23;;;;;;;29.42;42.52;100840.28;5019753;28;20045;-45
2022/07/12 11:14:11;;;;;;;2.13;0.88;;;;;;;29.42;41.74;100837.63;5020283;28;20073;-48
2022/07/12 11:16:47;;;;;;;3.15;0.95;;;;;;;29.39;41.24;100845.81;5020748;28;21092;-45
2022/07/12 11:19:15;;;;;;;2.35;0.80;;;;;;;29.36;41.25;100846.03;5006843;28;20077;-44
2022/07/12 11:21:45;;;;;;;5.40;0.85;;;;;;;29.32;40.93;100855.22;5021503;28;20108;-46
2022/07/12 11:24:21;;;;;;;6.63;1.20;;;;;;;29.24;41.12;100864.59;5023833;28;20052;-44
2022/07/12 11:26:48;;;;;;;;;;;;;;;29.04;41.85;100857.13;5020502;28;20057;-49
2022/07/12 11:29:15;;;;;;;2.08;0.80;;;;;;;29.10;41.38;100862.03;5016852;28;20392;-43
2022/07/12 11:31:42;;;;;;;2.85;1.05;;;;;;;29.10;41.56;100856.69;5013784;28;20399;-45
2022/07/12 11:34:26;;;;;;;3.50;1.00;;;;;;;28.98;41.81;100843.25;5022658;28;20038;-44
2022/07/12 11:36:54;;;;;;;2.55;0.82;;;;;;;29.04;41.75;100846.47;5020811;28;20054;-50
2022/07/12 11:39:38;;;;;;;1.85;1.33;;;;;;;29.07;41.54;100840.91;5019501;28;20049;-49
2022/07/12 11:42:06;;;;;;;3.40;0.82;;;;;;;29.21;40.99;100842.63;5013749;28;20050;-44
2022/07/12 11:44:53;;;;;;;2.60;0.70;;;;;;;29.27;41.67;100836.03;5013706;28;20050;-44
2022/07/12 11:47:21;;;;;;;2.42;1.20;;;;;;;29.42;42.79;100840.28;5015008;28;20212;-46
2022/07/12 11:49:54;;;;;;;1.70;0.80;;;;;;;29.49;42.12;100835.34;5023600;28;20124;-45
2022/07/12 11:52:23;;;;;;;1.58;0.73;;;;;;;29.53;42.13;100831.53;5006157;28;20057;-44
2022/07/12 11:54:50;;;;;;;;;;;;;;;29.32;41.21;100839.22;5023371;28;20053;-47
2022/07/12 11:57:23;;;;;;;2.30;1.10;;;;;;;29.46;41.54;100832.91;5022096;28;19928;-45
2022/07/12 11:59:50;;;;;;;2.08;1.02;;;;;;;29.52;42.31;100819.13;5020153;28;20054;-43
2022/07/12 12:02:17;;;;;;;2.35;1.05;;;;;;;29.60;42.21;100826.59;5020642;28;20042;-43
2022/07/12 12:04:49;;;;;;;7.75;1.25;;;;;;;29.61;42.19;100814.97;5040313;28;20045;-44
2022/07/12 12:07:17;;;;;;;1.20;0.70;;;;;;;29.60;41.24;100810.59;5020719;28;20585;-44